Buoy 53593

sailwx.info

Track history (hours):
 
Tides and Currents Weather Stations Pressure Air Temp Water Temp Dewpoint Dewpoint Depression Visibility Wind Speed Wind Dir Waves Ship Positions

Drifting buoy 53593

Last reported at 2016-Jul-01 14:00 UTC. Time now 2016-Jul-01 19:02 UTC.
Position S 15°13' E 108°49'.

Barometer 1012.4 mb
Water temperature 27.0 ° C

Date/timePositionNaut miles runAvg speedWind from/ knotsBaromVisibWave heightAir tempDewpointWater temp
2016-Jul-01 14:00S 15°13' E 108°49'2 0.6 1012.4 27.0
2016-Jul-01 11:00S 15°15' E 108°50'2 1.7 1011.6 27.1
2016-Jul-01 10:00S 15°16' E 108°50'0 0.0 1010.8 27.1
2016-Jul-01 09:00S 15°16' E 108°50'2 0.6 1010.3 27.1
2016-Jul-01 06:00S 15°17' E 108°52'2 2.2 1011.1 27.1
2016-Jul-01 05:00S 15°19' E 108°53'2 0.3 1011.5 27.1
2016-Jun-30 23:00S 15°20' E 108°55'3 1.3 1011.6 27.1
2016-Jun-30 21:00S 15°21' E 108°57'0 0.0 1011.0 27.1
2016-Jun-30 20:00S 15°21' E 108°57'0 0.0 1011.2 27.1
2016-Jun-30 19:00S 15°21' E 108°57'0 0.0 1011.8 27.1
2016-Jun-30 18:00S 15°21' E 108°57'1 0.1 1012.3 27.1
2016-Jun-30 14:00S 15°21' E 108°57'1 1.3 1013.6 27.0
2016-Jun-30 13:00S 15°21' E 108°59'0 0.2 1013.6 27.0
2016-Jun-30 10:00S 15°21' E 108°59'1 0.9 1011.6 27.0
2016-Jun-30 09:00S 15°20' E 108°60'2 0.6 1011.2 27.1
2016-Jun-30 06:00S 15°20' E 109°01'0 0.0 1012.0 27.1
2016-Jun-30 05:00S 15°20' E 109°01'1 0.3 1012.8 27.1
2016-Jun-30 01:00S 15°20' E 109°03'3 1.6 1014.6 27.1
2016-Jun-29 23:00S 15°20' E 109°06'3 1.3 1013.2 27.1
2016-Jun-29 21:00S 15°21' E 109°08'0 0.0 1012.7 27.2
2016-Jun-29 20:00S 15°21' E 109°08'2 0.9 1012.6 27.2
2016-Jun-29 18:00S 15°22' E 109°10'0 0.0 1013.6 27.2
2016-Jun-29 15:00S 15°22' E 109°10'1 1.1 1015.1 27.3
2016-Jun-29 14:00S 15°22' E 109°11'2 0.4 1015.2 27.3
2016-Jun-29 10:00S 15°22' E 109°13'0 0.0 1013.2 27.4
2016-Jun-29 08:00S 15°22' E 109°13'0 0.2 1012.0 27.4
2016-Jun-29 07:00S 15°22' E 109°13'0 0.0 1012.1 27.4
2016-Jun-29 06:00S 15°22' E 109°13'0 0.1 1012.3 27.4
2016-Jun-29 05:00S 15°22' E 109°13'1 0.2 1013.2 27.4
2016-Jun-29 01:00S 15°22' E 109°13'1 1.1 1014.1 27.4
2016-Jun-29 00:00S 15°22' E 109°14'0 0.0 1013.4 27.4
2016-Jun-28 23:00S 15°22' E 109°14'0 0.2 1013.1 27.4
2016-Jun-28 21:00S 15°23' E 109°15'1 0.1 1012.3 27.4
2016-Jun-28 14:00S 15°23' E 109°15'1 0.2 1014.0 27.4
2016-Jun-28 06:00S 15°23' E 109°13'1 0.3 1011.8 27.5
2016-Jun-28 02:00S 15°24' E 109°13'0 0.1 1013.7 27.3
2016-Jun-27 23:00S 15°24' E 109°13'0 0.0 1012.2 27.3
2016-Jun-27 22:00S 15°24' E 109°13'1 0.6 1011.9 27.3
2016-Jun-27 21:00S 15°25' E 109°13'0 0.1 1011.8 27.3
2016-Jun-27 18:00S 15°25' E 109°13'0 0.0 1012.3 27.4
2016-Jun-27 17:00S 15°25' E 109°13'1 0.4 1012.7 27.4
2016-Jun-27 14:00S 15°24' E 109°11'0 0.1 1013.4 27.4
2016-Jun-27 11:00S 15°24' E 109°12'1 0.7 1011.9 27.6
2016-Jun-27 09:00S 15°24' E 109°13'0 0.0 1010.9 27.8
2016-Jun-27 08:00S 15°24' E 109°13'2 0.3 1010.8 27.8
2016-Jun-27 02:00S 15°26' E 109°13'2 0.9 1014.4 27.3
2016-Jun-27 00:00S 15°28' E 109°12'1 0.4 1013.3 27.3
2016-Jun-26 22:00S 15°29' E 109°13'1 1.2 1012.6 27.3
2016-Jun-26 21:00S 15°30' E 109°13'1 0.5 1012.6 27.3
2016-Jun-26 19:00S 15°30' E 109°12'0 0.0 1013.2 27.3
2016-Jun-26 18:00S 15°30' E 109°12'0 0.1 1014.1 27.3
2016-Jun-26 17:00S 15°30' E 109°12'4 1.1 1014.5 27.4
2016-Jun-26 13:00S 15°31' E 109°08'1 0.4 1014.9 27.4
2016-Jun-26 11:00S 15°30' E 109°07'1 0.5 1013.9 27.4
2016-Jun-26 08:00S 15°29' E 109°07'0 0.0 1013.1 27.5
2016-Jun-26 07:00S 15°29' E 109°07'2 1.6 1013.2 27.5
2016-Jun-26 06:00S 15°28' E 109°06'3 0.4 1013.8 27.5
2016-Jun-25 23:00S 15°25' E 109°07'1 0.7 1014.8 27.4
2016-Jun-25 21:00S 15°24' E 109°07'2 1.6 1014.2 27.5
2016-Jun-25 20:00S 15°24' E 109°09'0 0.0 1014.6 27.5
2016-Jun-25 19:00S 15°24' E 109°09'2 0.9 1015.1 27.5
2016-Jun-25 17:00S 15°23' E 109°10'1 0.3 1015.9 27.5
2016-Jun-25 14:00S 15°23' E 109°11'1 1.4 1015.4 27.6
2016-Jun-25 13:00S 15°23' E 109°13'1 0.4 1015.3 27.6
2016-Jun-25 10:00S 15°23' E 109°14'1 1.0 1013.8 27.7
2016-Jun-25 09:00S 15°23' E 109°15'1 0.3 1013.3 27.7
2016-Jun-25 07:00S 15°24' E 109°15'1 0.6 1012.9 27.7
2016-Jun-25 06:00S 15°24' E 109°14'1 0.1 1013.3 27.7
2016-Jun-25 01:00S 15°25' E 109°14'0 0.2 1014.5 27.7
2016-Jun-24 23:00S 15°25' E 109°13'1 0.8 1013.4 27.7
2016-Jun-24 22:00S 15°26' E 109°14'1 1.2 1013.1 27.7
2016-Jun-24 21:00S 15°26' E 109°12'0 0.0 1012.8 27.7
2016-Jun-24 20:00S 15°26' E 109°12'2 0.3 1012.8 27.7
2016-Jun-24 15:00S 15°26' E 109°11'0 0.3 1013.8 28.1
2016-Jun-24 14:00S 15°26' E 109°11'2 0.5 1013.5 28.1
2016-Jun-24 11:00S 15°26' E 109°09'0 0.3 1011.7 28.3
2016-Jun-24 10:00S 15°26' E 109°09'1 0.5 1011.3 28.4
2016-Jun-24 07:00S 15°26' E 109°08'0 0.0 1011.0 28.2
2016-Jun-24 06:00S 15°26' E 109°08'0 0.1 1011.2 28.1
2016-Jun-24 01:00S 15°27' E 109°08'2 0.7 1012.7 27.8
2016-Jun-23 22:00S 15°28' E 109°06'1 0.7 1011.7 27.8
2016-Jun-23 20:00S 15°28' E 109°04'0 0.0 1011.3 27.8
2016-Jun-23 19:00S 15°28' E 109°04'3 0.5 1011.7 27.8
2016-Jun-23 13:00S 15°27' E 109°01'0 0.2 1011.8 28.1
2016-Jun-23 11:00S 15°28' E 109°01'0 0.2 1011.1 28.2
2016-Jun-23 10:00S 15°27' E 109°01'1 0.2 1010.7 28.2
2016-Jun-23 03:00S 15°28' E 109°00'4 0.7 1012.5 27.8
2016-Jun-22 21:00S 15°31' E 108°58'0 0.0 1011.3 27.8
2016-Jun-22 20:00S 15°31' E 108°58'3 0.6 1011.3 27.8
2016-Jun-22 15:00S 15°33' E 108°55'1 1.1 1012.1 27.8
2016-Jun-22 14:00S 15°34' E 108°54'2 0.9 1012.1 27.9
2016-Jun-22 12:00S 15°35' E 108°53'1 0.3 1011.2 27.8
2016-Jun-22 10:00S 15°35' E 108°52'1 1.0 1010.1 27.9
2016-Jun-22 09:00S 15°35' E 108°51'2 0.9 1009.7 28.0
2016-Jun-22 07:00S 15°35' E 108°50'2 2.2 1009.4 28.1
2016-Jun-22 06:00S 15°35' E 108°47'0 0.0 1009.9 27.9
2016-Jun-22 05:00S 15°35' E 108°47'0 0.0 1010.5 27.8
2016-Jun-22 02:00S 15°35' E 108°47'1 0.5 1011.8 27.7
2016-Jun-21 23:00S 15°35' E 108°46'0 0.2 1010.4 27.7
2016-Jun-21 21:00S 15°35' E 108°46'4 1.8 1010.0 27.7
2016-Jun-21 19:00S 15°37' E 108°43'0 0.0 1010.2 27.8
2016-Jun-21 18:00S 15°37' E 108°43'0 0.1 1010.3 27.8
2016-Jun-21 14:00S 15°36' E 108°42'   1010.6 27.8
Track history (hours):
 
Tides and Currents Weather Stations Pressure Air Temp Water Temp Dewpoint Dewpoint Depression Visibility Wind Speed Wind Dir Waves Ship Positions

Drifting buoy 53593

Last reported at 2016-Jul-01 14:00 UTC. Time now 2016-Jul-01 19:02 UTC.
Position S 15°13' E 108°49'.

Barometer 1012.4 mb
Water temperature 27.0 ° C

Date/timePositionNaut miles runAvg speedWind from/ knotsBaromVisibWave heightAir tempDewpointWater temp
2016-Jul-01 14:00S 15°13' E 108°49'2 0.6 1012.4 27.0
2016-Jul-01 11:00S 15°15' E 108°50'2 1.7 1011.6 27.1
2016-Jul-01 10:00S 15°16' E 108°50'0 0.0 1010.8 27.1
2016-Jul-01 09:00S 15°16' E 108°50'2 0.6 1010.3 27.1
2016-Jul-01 06:00S 15°17' E 108°52'2 2.2 1011.1 27.1
2016-Jul-01 05:00S 15°19' E 108°53'2 0.3 1011.5 27.1
2016-Jun-30 23:00S 15°20' E 108°55'3 1.3 1011.6 27.1
2016-Jun-30 21:00S 15°21' E 108°57'0 0.0 1011.0 27.1
2016-Jun-30 20:00S 15°21' E 108°57'0 0.0 1011.2 27.1
2016-Jun-30 19:00S 15°21' E 108°57'0 0.0 1011.8 27.1
2016-Jun-30 18:00S 15°21' E 108°57'1 0.1 1012.3 27.1
2016-Jun-30 14:00S 15°21' E 108°57'1 1.3 1013.6 27.0
2016-Jun-30 13:00S 15°21' E 108°59'0 0.2 1013.6 27.0
2016-Jun-30 10:00S 15°21' E 108°59'1 0.9 1011.6 27.0
2016-Jun-30 09:00S 15°20' E 108°60'2 0.6 1011.2 27.1
2016-Jun-30 06:00S 15°20' E 109°01'0 0.0 1012.0 27.1
2016-Jun-30 05:00S 15°20' E 109°01'1 0.3 1012.8 27.1
2016-Jun-30 01:00S 15°20' E 109°03'3 1.6 1014.6 27.1
2016-Jun-29 23:00S 15°20' E 109°06'3 1.3 1013.2 27.1
2016-Jun-29 21:00S 15°21' E 109°08'0 0.0 1012.7 27.2
2016-Jun-29 20:00S 15°21' E 109°08'2 0.9 1012.6 27.2
2016-Jun-29 18:00S 15°22' E 109°10'0 0.0 1013.6 27.2
2016-Jun-29 15:00S 15°22' E 109°10'1 1.1 1015.1 27.3
2016-Jun-29 14:00S 15°22' E 109°11'2 0.4 1015.2 27.3
2016-Jun-29 10:00S 15°22' E 109°13'0 0.0 1013.2 27.4
2016-Jun-29 08:00S 15°22' E 109°13'0 0.2 1012.0 27.4
2016-Jun-29 07:00S 15°22' E 109°13'0 0.0 1012.1 27.4
2016-Jun-29 06:00S 15°22' E 109°13'0 0.1 1012.3 27.4
2016-Jun-29 05:00S 15°22' E 109°13'1 0.2 1013.2 27.4
2016-Jun-29 01:00S 15°22' E 109°13'1 1.1 1014.1 27.4
2016-Jun-29 00:00S 15°22' E 109°14'0 0.0 1013.4 27.4
2016-Jun-28 23:00S 15°22' E 109°14'0 0.2 1013.1 27.4
2016-Jun-28 21:00S 15°23' E 109°15'1 0.1 1012.3 27.4
2016-Jun-28 14:00S 15°23' E 109°15'1 0.2 1014.0 27.4
2016-Jun-28 06:00S 15°23' E 109°13'1 0.3 1011.8 27.5
2016-Jun-28 02:00S 15°24' E 109°13'0 0.1 1013.7 27.3
2016-Jun-27 23:00S 15°24' E 109°13'0 0.0 1012.2 27.3
2016-Jun-27 22:00S 15°24' E 109°13'1 0.6 1011.9 27.3
2016-Jun-27 21:00S 15°25' E 109°13'0 0.1 1011.8 27.3
2016-Jun-27 18:00S 15°25' E 109°13'0 0.0 1012.3 27.4
2016-Jun-27 17:00S 15°25' E 109°13'1 0.4 1012.7 27.4
2016-Jun-27 14:00S 15°24' E 109°11'0 0.1 1013.4 27.4
2016-Jun-27 11:00S 15°24' E 109°12'1 0.7 1011.9 27.6
2016-Jun-27 09:00S 15°24' E 109°13'0 0.0 1010.9 27.8
2016-Jun-27 08:00S 15°24' E 109°13'2 0.3 1010.8 27.8
2016-Jun-27 02:00S 15°26' E 109°13'2 0.9 1014.4 27.3
2016-Jun-27 00:00S 15°28' E 109°12'1 0.4 1013.3 27.3
2016-Jun-26 22:00S 15°29' E 109°13'1 1.2 1012.6 27.3
2016-Jun-26 21:00S 15°30' E 109°13'1 0.5 1012.6 27.3
2016-Jun-26 19:00S 15°30' E 109°12'0 0.0 1013.2 27.3
2016-Jun-26 18:00S 15°30' E 109°12'0 0.1 1014.1 27.3
2016-Jun-26 17:00S 15°30' E 109°12'4 1.1 1014.5 27.4
2016-Jun-26 13:00S 15°31' E 109°08'1 0.4 1014.9 27.4
2016-Jun-26 11:00S 15°30' E 109°07'1 0.5 1013.9 27.4
2016-Jun-26 08:00S 15°29' E 109°07'0 0.0 1013.1 27.5
2016-Jun-26 07:00S 15°29' E 109°07'2 1.6 1013.2 27.5
2016-Jun-26 06:00S 15°28' E 109°06'3 0.4 1013.8 27.5
2016-Jun-25 23:00S 15°25' E 109°07'1 0.7 1014.8 27.4
2016-Jun-25 21:00S 15°24' E 109°07'2 1.6 1014.2 27.5
2016-Jun-25 20:00S 15°24' E 109°09'0 0.0 1014.6 27.5
2016-Jun-25 19:00S 15°24' E 109°09'2 0.9 1015.1 27.5
2016-Jun-25 17:00S 15°23' E 109°10'1 0.3 1015.9 27.5
2016-Jun-25 14:00S 15°23' E 109°11'1 1.4 1015.4 27.6
2016-Jun-25 13:00S 15°23' E 109°13'1 0.4 1015.3 27.6
2016-Jun-25 10:00S 15°23' E 109°14'1 1.0 1013.8 27.7
2016-Jun-25 09:00S 15°23' E 109°15'1 0.3 1013.3 27.7
2016-Jun-25 07:00S 15°24' E 109°15'1 0.6 1012.9 27.7
2016-Jun-25 06:00S 15°24' E 109°14'1 0.1 1013.3 27.7
2016-Jun-25 01:00S 15°25' E 109°14'0 0.2 1014.5 27.7
2016-Jun-24 23:00S 15°25' E 109°13'1 0.8 1013.4 27.7
2016-Jun-24 22:00S 15°26' E 109°14'1 1.2 1013.1 27.7
2016-Jun-24 21:00S 15°26' E 109°12'0 0.0 1012.8 27.7
2016-Jun-24 20:00S 15°26' E 109°12'2 0.3 1012.8 27.7
2016-Jun-24 15:00S 15°26' E 109°11'0 0.3 1013.8 28.1
2016-Jun-24 14:00S 15°26' E 109°11'2 0.5 1013.5 28.1
2016-Jun-24 11:00S 15°26' E 109°09'0 0.3 1011.7 28.3
2016-Jun-24 10:00S 15°26' E 109°09'1 0.5 1011.3 28.4
2016-Jun-24 07:00S 15°26' E 109°08'0 0.0 1011.0 28.2
2016-Jun-24 06:00S 15°26' E 109°08'0 0.1 1011.2 28.1
2016-Jun-24 01:00S 15°27' E 109°08'2 0.7 1012.7 27.8
2016-Jun-23 22:00S 15°28' E 109°06'1 0.7 1011.7 27.8
2016-Jun-23 20:00S 15°28' E 109°04'0 0.0 1011.3 27.8
2016-Jun-23 19:00S 15°28' E 109°04'3 0.5 1011.7 27.8
2016-Jun-23 13:00S 15°27' E 109°01'0 0.2 1011.8 28.1
2016-Jun-23 11:00S 15°28' E 109°01'0 0.2 1011.1 28.2
2016-Jun-23 10:00S 15°27' E 109°01'1 0.2 1010.7 28.2
2016-Jun-23 03:00S 15°28' E 109°00'4 0.7 1012.5 27.8
2016-Jun-22 21:00S 15°31' E 108°58'0 0.0 1011.3 27.8
2016-Jun-22 20:00S 15°31' E 108°58'3 0.6 1011.3 27.8
2016-Jun-22 15:00S 15°33' E 108°55'1 1.1 1012.1 27.8
2016-Jun-22 14:00S 15°34' E 108°54'2 0.9 1012.1 27.9
2016-Jun-22 12:00S 15°35' E 108°53'1 0.3 1011.2 27.8
2016-Jun-22 10:00S 15°35' E 108°52'1 1.0 1010.1 27.9
2016-Jun-22 09:00S 15°35' E 108°51'2 0.9 1009.7 28.0
2016-Jun-22 07:00S 15°35' E 108°50'2 2.2 1009.4 28.1
2016-Jun-22 06:00S 15°35' E 108°47'0 0.0 1009.9 27.9
2016-Jun-22 05:00S 15°35' E 108°47'0 0.0 1010.5 27.8
2016-Jun-22 02:00S 15°35' E 108°47'1 0.5 1011.8 27.7
2016-Jun-21 23:00S 15°35' E 108°46'0 0.2 1010.4 27.7
2016-Jun-21 21:00S 15°35' E 108°46'4 1.8 1010.0 27.7
2016-Jun-21 19:00S 15°37' E 108°43'0 0.0 1010.2 27.8
2016-Jun-21 18:00S 15°37' E 108°43'0 0.1 1010.3 27.8
2016-Jun-21 14:00S 15°36' E 108°42'   1010.6 27.8

Dump ship's entire track history